Time;durP1;ratioP1;P1;durP2;ratioP2;P2;SDS_P1;SDS_P2;PMS_P1;PMS_P2;Temp;Humidity;BMP_temperature;BMP_pressure;BME280_temperature;BME280_humidity;BME280_pressure;Samples;Min_cycle;Max_cycle;Signal;HPM_P1;HPM_P2
2024/01/11 00:01:20;;;;;;;8.02;5.35;;;3.50;72.40;;;;;;5116070;28;20035;-70
2024/01/11 00:03:46;;;;;;;6.13;5.07;;;3.50;72.40;;;;;;5119482;27;20035;-70
2024/01/11 00:06:12;;;;;;;6.90;5.20;;;3.50;72.40;;;;;;5114877;28;20058;-70
2024/01/11 00:08:37;;;;;;;6.78;5.72;;;3.50;72.40;;;;;;5115337;28;20376;-69
2024/01/11 00:11:03;;;;;;;7.60;5.47;;;3.50;72.40;;;;;;5114969;28;20027;-70
2024/01/11 00:13:29;;;;;;;7.63;5.68;;;3.50;72.40;;;;;;5115598;28;20032;-70
2024/01/11 00:15:55;;;;;;;6.90;5.18;;;3.50;72.40;;;;;;5115820;28;20031;-71
2024/01/11 00:18:20;;;;;;;7.20;5.38;;;3.50;72.40;;;;;;5115589;28;20135;-70
2024/01/11 00:20:46;;;;;;;7.60;5.70;;;3.50;72.40;;;;;;5115951;28;20084;-70
2024/01/11 00:23:12;;;;;;;8.15;5.47;;;3.50;72.40;;;;;;5115255;28;20457;-69
2024/01/11 00:25:37;;;;;;;7.28;5.22;;;3.50;72.40;;;;;;5096055;28;20042;-70
2024/01/11 00:28:03;;;;;;;7.10;5.38;;;3.50;72.40;;;;;;5094202;28;20125;-70
2024/01/11 00:30:29;;;;;;;6.82;5.28;;;3.50;72.40;;;;;;5094117;28;20502;-71
2024/01/11 00:32:55;;;;;;;7.25;5.65;;;3.50;72.40;;;;;;5095378;28;20054;-70
2024/01/11 00:35:20;;;;;;;6.63;5.10;;;3.50;72.40;;;;;;5094329;28;20485;-70
2024/01/11 00:37:46;;;;;;;6.97;5.30;;;3.50;72.40;;;;;;5095313;28;20485;-70
2024/01/11 00:40:11;;;;;;;6.13;4.93;;;3.50;72.40;;;;;;5095184;28;20038;-70
2024/01/11 00:42:37;;;;;;;7.68;5.30;;;3.50;72.40;;;;;;5093841;28;20028;-69
2024/01/11 00:45:04;;;;;;;7.05;5.22;;;3.50;72.40;;;;;;5106711;28;20034;-69
2024/01/11 00:47:29;;;;;;;7.50;5.28;;;3.50;72.30;;;;;;5113865;28;20497;-70
2024/01/11 00:49:55;;;;;;;7.57;5.78;;;3.50;72.40;;;;;;5115261;28;20027;-69
2024/01/11 00:52:21;;;;;;;6.35;5.03;;;3.50;72.40;;;;;;5114628;28;20062;-69
2024/01/11 00:54:46;;;;;;;8.13;5.82;;;3.50;72.40;;;;;;5114388;28;20027;-69
2024/01/11 00:57:12;;;;;;;7.38;5.85;;;3.50;72.40;;;;;;5115319;28;20035;-70
2024/01/11 00:59:40;;;;;;;6.72;5.80;;;3.40;72.30;;;;;;5115073;28;20056;-70
2024/01/11 01:02:05;;;;;;;7.00;5.47;;;3.50;72.40;;;;;;5115089;28;20028;-70
2024/01/11 01:04:31;;;;;;;7.65;5.53;;;3.50;72.40;;;;;;5109565;28;20061;-70
2024/01/11 01:06:57;;;;;;;8.50;6.00;;;3.50;72.30;;;;;;5105187;28;20138;-69
2024/01/11 01:09:23;;;;;;;7.32;5.53;;;3.50;72.30;;;;;;5094625;28;20024;-71
2024/01/11 01:11:48;;;;;;;8.75;5.63;;;3.50;72.30;;;;;;5094437;28;20078;-70
2024/01/11 01:14:14;;;;;;;7.85;5.93;;;3.50;72.30;;;;;;5099287;28;20503;-70
2024/01/11 01:16:40;;;;;;;7.93;5.50;;;3.50;72.30;;;;;;5113468;28;20027;-69
2024/01/11 01:19:05;;;;;;;6.97;5.40;;;3.40;72.30;;;;;;5114886;28;20023;-70
2024/01/11 01:21:31;;;;;;;7.75;5.82;;;3.40;72.20;;;;;;5105369;28;20387;-70
2024/01/11 01:23:57;;;;;;;8.10;5.93;;;3.40;72.30;;;;;;5097688;28;20023;-69
2024/01/11 01:26:22;;;;;;;7.38;6.05;;;3.50;72.30;;;;;;5113243;28;20031;-70
2024/01/11 01:28:48;;;;;;;7.47;5.38;;;3.50;72.30;;;;;;5114723;28;20043;-71
2024/01/11 01:31:14;;;;;;;7.18;5.80;;;3.50;72.40;;;;;;5114543;28;20029;-69
2024/01/11 01:33:43;;;;;;;7.30;5.80;;;3.40;72.30;;;;;;5113298;28;20058;-70
2024/01/11 01:36:10;;;;;;;7.22;5.78;;;3.40;72.30;;;;;;5072787;28;20036;-71
2024/01/11 01:38:36;;;;;;;7.72;5.80;;;3.50;72.30;;;;;;5073861;28;20474;-69
2024/01/11 01:41:02;;;;;;;7.47;6.10;;;3.50;72.40;;;;;;5073623;28;20028;-70
2024/01/11 01:43:28;;;;;;;7.15;5.65;;;3.40;72.20;;;;;;5073846;28;20036;-70
2024/01/11 01:45:54;;;;;;;7.45;5.97;;;3.50;72.30;;;;;;5110827;28;20034;-69
2024/01/11 01:48:20;;;;;;;7.40;5.50;;;3.40;72.30;;;;;;5113089;28;20044;-70
2024/01/11 01:50:50;;;;;;;7.43;5.40;;;3.50;72.30;;;;;;5096704;28;20036;-70
2024/01/11 01:53:21;;;;;;;8.02;5.72;;;3.40;72.30;;;;;;5091133;28;20107;-70
2024/01/11 01:55:48;;;;;;;7.88;5.63;;;3.50;72.40;;;;;;5111475;28;20076;-71
2024/01/11 01:58:15;;;;;;;8.02;5.78;;;3.50;72.40;;;;;;5107407;28;20032;-70
2024/01/11 02:00:41;;;;;;;7.97;5.30;;;3.50;72.30;;;;;;5093265;28;20059;-70
2024/01/11 02:03:09;;;;;;;8.25;5.93;;;3.50;72.30;;;;;;5093620;28;20492;-70
2024/01/11 02:05:35;;;;;;;8.88;6.20;;;3.50;72.30;;;;;;5106874;28;20051;-70
2024/01/11 02:08:08;;;;;;;8.10;5.70;;;3.50;72.30;;;;;;5113709;28;20032;-70
2024/01/11 02:10:35;;;;;;;7.53;5.82;;;3.50;72.30;;;;;;5112903;28;20027;-70
2024/01/11 02:13:01;;;;;;;7.45;5.93;;;3.50;72.30;;;;;;5111870;28;20427;-71
2024/01/11 02:15:27;;;;;;;7.60;5.78;;;3.40;72.20;;;;;;5113894;28;20057;-70
2024/01/11 02:17:52;;;;;;;6.38;5.20;;;3.50;72.30;;;;;;5113369;28;20035;-69
2024/01/11 02:20:18;;;;;;;8.38;6.15;;;3.40;72.20;;;;;;5114166;28;20035;-69
2024/01/11 02:22:48;;;;;;;7.47;5.47;;;3.50;72.30;;;;;;5112930;28;20059;-71
2024/01/11 02:25:14;;;;;;;8.05;6.22;;;3.50;72.30;;;;;;5102990;28;20032;-69
2024/01/11 02:27:49;;;;;;;7.03;5.20;;;3.40;72.30;;;;;;5093746;28;20042;-70
2024/01/11 02:30:16;;;;;;;7.55;5.70;;;3.50;72.30;;;;;;5093734;28;20069;-70
2024/01/11 02:32:47;;;;;;;8.13;5.80;;;3.40;72.20;;;;;;5093544;28;20025;-70
2024/01/11 02:35:16;;;;;;;7.00;5.43;;;3.50;72.20;;;;;;5102695;28;20523;-69
2024/01/11 02:37:42;;;;;;;8.05;5.70;;;3.40;72.20;;;;;;5113980;28;20036;-70
2024/01/11 02:40:09;;;;;;;7.90;5.38;;;3.40;72.20;;;;;;5113000;28;20476;-71
2024/01/11 02:42:35;;;;;;;8.32;5.45;;;3.50;72.20;;;;;;5107909;28;20539;-70
2024/01/11 02:45:03;;;;;;;8.00;5.68;;;3.50;72.20;;;;;;5102213;28;20115;-71
2024/01/11 02:47:29;;;;;;;7.70;5.50;;;3.50;72.20;;;;;;5117590;28;20035;-69
2024/01/11 02:49:55;;;;;;;7.13;5.28;;;3.50;72.30;;;;;;5117316;28;20480;-70
2024/01/11 02:52:20;;;;;;;7.63;5.72;;;3.50;72.30;;;;;;5115423;28;20536;-70
2024/01/11 02:54:46;;;;;;;8.13;5.82;;;3.50;72.20;;;;;;5116997;28;20037;-69
2024/01/11 02:57:12;;;;;;;7.10;5.63;;;3.50;72.20;;;;;;5117826;28;20040;-70
2024/01/11 02:59:37;;;;;;;7.68;5.68;;;3.40;72.20;;;;;;5116821;28;20457;-70
2024/01/11 03:02:04;;;;;;;7.90;5.75;;;3.50;72.20;;;;;;5117570;28;20024;-70
2024/01/11 03:04:29;;;;;;;8.13;5.70;;;3.50;72.20;;;;;;5114416;28;20397;-70
2024/01/11 03:06:55;;;;;;;8.07;5.82;;;3.40;72.20;;;;;;5117402;28;20023;-71
2024/01/11 03:09:21;;;;;;;8.13;6.25;;;3.50;72.20;;;;;;5099968;28;20476;-70
2024/01/11 03:11:47;;;;;;;7.18;5.70;;;3.50;72.20;;;;;;5117697;28;20027;-69
2024/01/11 03:14:12;;;;;;;7.78;5.32;;;3.40;72.20;;;;;;5120142;27;20019;-70
2024/01/11 03:16:39;;;;;;;7.15;5.38;;;3.50;72.20;;;;;;5137800;27;20035;-70
2024/01/11 03:19:06;;;;;;;7.38;5.22;;;3.40;72.20;;;;;;5119259;27;20503;-71
2024/01/11 03:21:31;;;;;;;8.38;6.32;;;3.40;72.10;;;;;;5137570;27;20041;-70
2024/01/11 03:23:57;;;;;;;7.85;5.63;;;3.50;72.20;;;;;;5115354;27;20376;-71
2024/01/11 03:26:23;;;;;;;6.20;5.53;;;3.50;72.20;;;;;;5119134;27;20038;-71
2024/01/11 03:28:49;;;;;;;9.52;6.45;;;3.40;72.10;;;;;;5137986;27;20023;-69
2024/01/11 03:31:14;;;;;;;7.55;5.65;;;3.40;72.10;;;;;;5119018;27;20118;-70
2024/01/11 03:33:40;;;;;;;8.07;5.90;;;3.40;72.70;;;;;;5136357;27;20023;-69
2024/01/11 03:36:10;;;;;;;7.75;5.90;;;3.40;72.20;;;;;;5135460;27;20031;-71
2024/01/11 03:38:35;;;;;;;7.93;5.85;;;3.40;72.20;;;;;;5136457;27;20503;-70
2024/01/11 03:41:02;;;;;;;8.20;6.15;;;3.40;72.20;;;;;;5136161;27;20043;-70
2024/01/11 03:43:28;;;;;;;7.43;6.00;;;3.50;72.20;;;;;;5136079;27;20490;-71
2024/01/11 03:45:53;;;;;;;7.72;5.85;;;3.40;72.20;;;;;;5114380;28;20084;-69
2024/01/11 03:48:19;;;;;;;7.88;5.70;;;3.40;72.10;;;;;;5115517;27;20059;-71
2024/01/11 03:50:45;;;;;;;7.32;5.70;;;3.40;72.10;;;;;;5116554;28;20469;-73
2024/01/11 03:53:10;;;;;;;8.18;6.20;;;3.40;72.20;;;;;;5098466;28;20020;-70
2024/01/11 03:55:36;;;;;;;8.15;5.95;;;3.40;72.70;;;;;;5128862;27;20026;-71
2024/01/11 03:58:02;;;;;;;7.72;5.78;;;3.40;72.20;;;;;;5118651;27;20423;-70
2024/01/11 04:00:27;;;;;;;7.72;5.88;;;3.40;72.10;;;;;;5118420;27;20031;-70
2024/01/11 04:02:53;;;;;;;7.78;6.00;;;3.40;72.10;;;;;;5118508;27;20114;-69
2024/01/11 04:05:19;;;;;;;8.65;5.60;;;3.40;72.10;;;;;;5109332;28;20052;-70
2024/01/11 04:07:44;;;;;;;8.70;5.53;;;3.40;72.10;;;;;;5114737;28;20068;-70
2024/01/11 04:10:10;;;;;;;7.88;5.97;;;3.40;72.10;;;;;;5116299;28;20473;-71
2024/01/11 04:12:37;;;;;;;7.22;5.30;;;3.40;72.10;;;;;;5116084;28;20024;-69
2024/01/11 04:15:03;;;;;;;7.32;5.45;;;3.40;72.10;;;;;;5107296;28;20028;-69
2024/01/11 04:17:28;;;;;;;7.93;6.03;;;3.40;72.10;;;;;;5094214;28;20452;-70
2024/01/11 04:19:54;;;;;;;7.13;5.43;;;3.40;72.10;;;;;;5095896;28;20024;-70
2024/01/11 04:22:20;;;;;;;8.73;5.63;;;3.40;72.10;;;;;;5095428;28;20036;-72
2024/01/11 04:24:46;;;;;;;7.95;5.70;;;3.40;72.10;;;;;;5087568;28;20049;-71
2024/01/11 04:27:11;;;;;;;7.53;5.70;;;3.40;72.10;;;;;;5114919;28;20381;-69
2024/01/11 04:29:37;;;;;;;8.00;5.90;;;3.40;72.10;;;;;;5114649;28;20027;-70
2024/01/11 04:32:03;;;;;;;8.15;5.45;;;3.40;72.10;;;;;;5115878;28;20124;-69
2024/01/11 04:34:29;;;;;;;7.32;5.60;;;3.40;72.20;;;;;;5104976;28;20035;-70
2024/01/11 04:36:54;;;;;;;6.80;5.55;;;3.40;72.10;;;;;;5114790;28;20031;-69
2024/01/11 04:39:20;;;;;;;7.53;5.50;;;3.40;72.10;;;;;;5114287;28;20023;-69
2024/01/11 04:41:46;;;;;;;6.75;5.38;;;3.40;72.10;;;;;;5115524;28;20023;-69
2024/01/11 04:44:11;;;;;;;7.82;5.80;;;3.40;72.10;;;;;;5113284;28;20031;-69
2024/01/11 04:46:37;;;;;;;7.78;5.88;;;3.40;72.10;;;;;;5094854;28;20036;-69
2024/01/11 04:49:02;;;;;;;7.32;5.50;;;3.40;72.10;;;;;;5102334;28;20035;-70
2024/01/11 04:51:28;;;;;;;7.95;5.90;;;3.40;72.10;;;;;;5073477;28;20035;-69
2024/01/11 04:53:54;;;;;;;7.95;6.05;;;3.40;72.10;;;;;;5073373;28;20074;-69
2024/01/11 04:56:20;;;;;;;6.30;5.25;;;3.40;72.10;;;;;;5093655;28;20048;-70
2024/01/11 04:58:46;;;;;;;7.38;5.65;;;3.40;72.10;;;;;;5094812;28;20046;-69
2024/01/11 05:01:16;;;;;;;6.18;4.78;;;3.40;72.10;;;;;;5093431;28;20031;-70
2024/01/11 05:03:46;;;;;;;7.10;5.57;;;3.40;72.10;;;;;;5101646;28;20110;-70
2024/01/11 05:06:20;;;;;;;6.18;5.38;;;3.40;72.10;;;;;;5113729;28;20047;-70
2024/01/11 05:08:46;;;;;;;7.68;5.55;;;3.40;72.10;;;;;;5112776;28;20031;-71
2024/01/11 05:11:20;;;;;;;7.65;5.47;;;3.40;72.10;;;;;;5115103;28;20055;-71
2024/01/11 05:13:47;;;;;;;7.72;5.93;;;3.40;72.10;;;;;;5112674;28;20030;-70
2024/01/11 05:16:26;;;;;;;6.68;5.13;;;3.40;72.10;;;;;;5094472;28;20114;-70
2024/01/11 05:18:53;;;;;;;7.55;5.35;;;3.40;72.00;;;;;;5094571;28;20048;-70
2024/01/11 05:21:20;;;;;;;6.35;5.35;;;3.40;72.10;;;;;;5093286;28;20374;-70
2024/01/11 05:23:45;;;;;;;5.95;4.82;;;3.40;72.10;;;;;;5094355;28;20477;-69
2024/01/11 05:26:12;;;;;;;6.93;5.28;;;3.40;72.10;;;;;;5094143;28;20024;-71
2024/01/11 05:28:38;;;;;;;7.35;5.50;;;3.40;72.10;;;;;;5094054;28;20035;-70
2024/01/11 05:31:14;;;;;;;7.15;5.18;;;3.40;72.10;;;;;;5094308;28;20485;-70
2024/01/11 05:33:41;;;;;;;6.90;5.30;;;3.40;72.10;;;;;;5103635;28;20037;-71
2024/01/11 05:36:07;;;;;;;6.53;5.15;;;3.40;72.10;;;;;;5112233;28;20054;-70
2024/01/11 05:38:34;;;;;;;7.13;5.85;;;3.40;72.00;;;;;;5112508;28;20533;-73
2024/01/11 05:44:21;;;;;;;6.55;5.38;;;3.40;72.00;;;;;;5095076;28;20041;-71
2024/01/11 05:46:47;;;;;;;6.65;5.15;;;3.40;72.00;;;;;;5112781;28;20102;-69
2024/01/11 05:49:13;;;;;;;7.45;5.68;;;3.40;72.00;;;;;;5112243;28;20031;-71
2024/01/11 05:51:39;;;;;;;7.78;5.97;;;3.40;72.00;;;;;;5112041;28;20035;-71
2024/01/11 05:54:10;;;;;;;7.25;5.75;;;3.40;72.00;;;;;;5110483;28;20028;-74
2024/01/11 05:56:35;;;;;;;7.00;5.40;;;3.40;72.00;;;;;;5106120;28;20024;-70
2024/01/11 05:59:01;;;;;;;6.75;5.07;;;3.40;72.00;;;;;;5114195;28;20028;-71
2024/01/11 06:01:27;;;;;;;6.22;5.10;;;3.50;72.00;;;;;;5113902;28;20031;-71
2024/01/11 06:03:52;;;;;;;6.68;4.75;;;3.50;72.10;;;;;;5097752;28;20032;-70
2024/01/11 06:06:18;;;;;;;6.72;5.10;;;3.40;72.00;;;;;;5112665;28;20051;-70
2024/01/11 06:08:44;;;;;;;6.93;5.10;;;3.50;72.10;;;;;;5087403;28;20479;-70
2024/01/11 06:11:10;;;;;;;7.43;5.20;;;3.50;72.00;;;;;;5074021;28;20060;-70
2024/01/11 06:13:35;;;;;;;5.32;4.63;;;3.50;72.10;;;;;;5081271;28;20028;-71
2024/01/11 06:16:01;;;;;;;7.03;5.10;;;3.50;72.00;;;;;;5094254;28;20493;-71
2024/01/11 06:18:27;;;;;;;6.55;4.88;;;3.50;72.00;;;;;;5094189;28;20036;-73
2024/01/11 06:20:52;;;;;;;6.18;4.70;;;3.50;72.00;;;;;;5098596;28;20047;-71
2024/01/11 06:23:19;;;;;;;6.82;5.25;;;3.50;72.00;;;;;;5089024;28;20028;-69
2024/01/11 06:25:46;;;;;;;7.88;5.32;;;3.50;71.90;;;;;;5076249;28;20032;-68
2024/01/11 06:28:12;;;;;;;7.60;5.20;;;3.50;71.90;;;;;;5088135;28;20040;-70
2024/01/11 06:30:37;;;;;;;5.80;4.63;;;3.60;71.90;;;;;;5080986;28;20037;-69
2024/01/11 06:33:03;;;;;;;6.28;4.93;;;3.60;71.90;;;;;;5080210;28;20036;-69
2024/01/11 06:35:29;;;;;;;6.70;5.20;;;3.60;71.90;;;;;;5099109;28;20024;-69
2024/01/11 06:37:54;;;;;;;6.30;5.18;;;3.60;71.90;;;;;;5097345;28;20130;-67
2024/01/11 06:40:20;;;;;;;6.95;5.28;;;3.60;71.90;;;;;;5097508;28;20073;-68
2024/01/11 06:42:46;;;;;;;6.55;5.03;;;3.60;71.80;;;;;;5097474;28;20109;-68
2024/01/11 06:45:11;;;;;;;6.70;5.07;;;3.60;71.80;;;;;;5097242;28;20020;-67
2024/01/11 06:47:37;;;;;;;7.40;5.68;;;3.60;71.80;;;;;;5097169;28;20053;-70
2024/01/11 06:50:03;;;;;;;6.82;5.07;;;3.70;71.80;;;;;;5095765;28;20028;-69
2024/01/11 06:52:28;;;;;;;7.53;5.18;;;3.70;71.80;;;;;;5096000;28;20032;-69
2024/01/11 06:54:54;;;;;;;5.75;4.47;;;3.70;71.80;;;;;;5097575;28;20028;-72
2024/01/11 06:57:20;;;;;;;6.65;5.30;;;3.70;71.80;;;;;;5095455;28;20036;-73
2024/01/11 06:59:46;;;;;;;6.47;5.40;;;3.70;71.80;;;;;;5096024;28;20032;-70
2024/01/11 07:02:12;;;;;;;6.70;5.32;;;3.70;71.70;;;;;;5096877;28;20024;-71
2024/01/11 07:04:38;;;;;;;7.32;4.72;;;3.70;71.70;;;;;;5096323;28;20048;-70
2024/01/11 07:07:04;;;;;;;6.95;4.95;;;3.80;71.70;;;;;;5120010;27;20034;-70
2024/01/11 07:09:30;;;;;;;7.18;5.45;;;3.80;71.70;;;;;;5130647;27;20465;-70
2024/01/11 07:11:55;;;;;;;6.88;5.22;;;3.80;71.70;;;;;;5101839;27;20076;-70
2024/01/11 07:14:21;;;;;;;6.93;4.88;;;3.80;71.70;;;;;;5138238;27;20026;-71
2024/01/11 07:16:47;;;;;;;5.75;5.07;;;3.80;71.70;;;;;;5129196;27;20198;-70
2024/01/11 07:19:13;;;;;;;7.82;5.53;;;3.80;71.70;;;;;;5102371;28;20024;-72
2024/01/11 07:21:38;;;;;;;8.18;5.55;;;3.80;71.70;;;;;;5102326;27;20541;-73
2024/01/11 07:24:04;;;;;;;8.88;5.32;;;3.80;71.70;;;;;;5136738;27;20501;-71
2024/01/11 07:26:30;;;;;;;6.75;5.15;;;3.80;71.70;;;;;;5113366;27;20019;-69
2024/01/11 07:28:56;;;;;;;7.47;5.50;;;3.80;71.70;;;;;;5121607;27;20374;-70
2024/01/11 07:31:22;;;;;;;7.15;5.22;;;3.80;71.70;;;;;;5136363;27;20015;-70
2024/01/11 07:33:47;;;;;;;6.57;5.38;;;3.80;71.70;;;;;;5128803;27;20032;-70
2024/01/11 07:36:13;;;;;;;6.43;4.93;;;3.80;71.70;;;;;;5116104;28;20042;-71
2024/01/11 07:38:39;;;;;;;6.85;5.05;;;3.90;71.70;;;;;;5098183;28;20058;-73
2024/01/11 07:41:05;;;;;;;8.52;5.95;;;3.90;71.70;;;;;;5096272;28;20051;-71
2024/01/11 07:43:34;;;;;;;7.07;5.18;;;3.90;71.70;;;;;;5097696;28;20465;-71
2024/01/11 07:46:05;;;;;;;6.95;5.07;;;3.90;71.60;;;;;;5116259;27;20027;-72
2024/01/11 07:48:31;;;;;;;6.85;5.25;;;4.00;71.70;;;;;;5114712;27;20115;-72
2024/01/11 07:50:59;;;;;;;5.70;4.75;;;4.00;71.70;;;;;;5095382;28;20123;-71
2024/01/11 07:53:25;;;;;;;6.70;5.25;;;4.00;71.60;;;;;;5114783;27;20024;-72
2024/01/11 07:55:51;;;;;;;6.30;5.20;;;4.00;71.60;;;;;;5113865;28;20020;-72
2024/01/11 07:58:17;;;;;;;7.65;5.45;;;4.10;71.50;;;;;;5113330;28;20035;-72
2024/01/11 08:00:43;;;;;;;7.07;5.15;;;4.10;71.50;;;;;;5095066;28;20393;-72
2024/01/11 08:03:09;;;;;;;7.45;5.57;;;4.10;71.50;;;;;;5094825;28;20063;-70
2024/01/11 08:05:35;;;;;;;7.07;5.07;;;4.10;71.50;;;;;;5094536;28;20054;-72
2024/01/11 08:08:03;;;;;;;7.53;5.40;;;4.10;71.50;;;;;;5113420;28;20372;-71
2024/01/11 08:10:30;;;;;;;7.30;5.00;;;4.10;72.00;;;;;;5112033;28;20081;-70
2024/01/11 08:12:56;;;;;;;8.20;5.70;;;4.10;71.50;;;;;;5113197;28;20023;-72
2024/01/11 08:15:21;;;;;;;7.68;5.60;;;4.10;71.50;;;;;;5094579;28;20024;-71
2024/01/11 08:17:48;;;;;;;6.90;5.45;;;4.10;71.50;;;;;;5113155;28;20036;-71
2024/01/11 08:20:14;;;;;;;7.20;5.25;;;4.20;71.70;;;;;;5095630;28;20469;-71
2024/01/11 08:22:41;;;;;;;6.70;5.13;;;4.30;71.70;;;;;;5113170;28;20039;-72
2024/01/11 08:25:08;;;;;;;8.27;5.68;;;4.40;71.70;;;;;;5112986;28;20051;-71
2024/01/11 08:27:33;;;;;;;6.50;5.18;;;4.50;71.50;;;;;;5113228;28;20132;-69
2024/01/11 08:30:00;;;;;;;7.32;5.85;;;4.60;71.40;;;;;;5094456;28;20487;-69
2024/01/11 08:32:26;;;;;;;7.20;5.32;;;4.60;71.30;;;;;;5113416;27;20084;-71
2024/01/11 08:34:52;;;;;;;6.22;4.60;;;4.60;71.10;;;;;;5114409;27;20511;-70
2024/01/11 08:37:20;;;;;;;6.60;5.10;;;4.70;71.00;;;;;;5094398;28;20067;-70
2024/01/11 08:39:46;;;;;;;7.72;5.82;;;4.70;71.00;;;;;;5114964;27;20508;-71
2024/01/11 08:42:12;;;;;;;7.82;5.63;;;4.70;70.90;;;;;;5095765;28;20028;-71
2024/01/11 08:44:44;;;;;;;6.68;5.20;;;4.70;70.80;;;;;;5095671;28;20030;-71
2024/01/11 08:47:10;;;;;;;6.70;4.90;;;4.70;70.80;;;;;;5109643;28;20028;-71
2024/01/11 08:49:39;;;;;;;6.53;5.10;;;4.70;70.80;;;;;;5113643;28;20055;-72
2024/01/11 08:52:05;;;;;;;7.03;5.70;;;4.70;70.80;;;;;;5095404;28;20027;-71
2024/01/11 08:54:34;;;;;;;7.18;5.07;;;4.70;70.80;;;;;;5095318;28;20026;-71
2024/01/11 08:57:01;;;;;;;8.73;5.70;;;4.70;70.80;;;;;;5113360;28;20024;-72
2024/01/11 08:59:27;;;;;;;6.57;4.88;;;4.70;70.80;;;;;;5095179;28;20035;-71
2024/01/11 09:01:52;;;;;;;7.47;5.25;;;4.70;71.40;;;;;;5095102;28;20058;-71
2024/01/11 09:04:18;;;;;;;8.23;5.80;;;4.70;70.80;;;;;;5095035;28;20035;-71
2024/01/11 09:06:45;;;;;;;6.88;5.35;;;4.60;70.80;;;;;;5113506;28;20035;-71
2024/01/11 09:09:13;;;;;;;7.00;5.38;;;4.60;70.80;;;;;;5094845;28;20131;-70
2024/01/11 09:11:40;;;;;;;7.18;5.20;;;4.60;70.80;;;;;;5094738;28;20035;-72
2024/01/11 09:14:06;;;;;;;6.40;5.13;;;4.60;70.80;;;;;;5095144;28;20023;-70
2024/01/11 09:16:33;;;;;;;8.20;5.47;;;4.60;70.80;;;;;;5113081;28;20028;-71
2024/01/11 09:19:01;;;;;;;7.22;5.13;;;4.60;70.90;;;;;;5112795;28;20079;-71
2024/01/11 09:21:27;;;;;;;7.18;5.00;;;4.60;70.90;;;;;;5094732;28;20031;-70
2024/01/11 09:23:53;;;;;;;7.13;5.85;;;4.60;70.90;;;;;;5113060;28;20137;-71
2024/01/11 09:26:19;;;;;;;6.68;5.28;;;4.60;70.90;;;;;;5113047;28;20042;-70
2024/01/11 09:28:45;;;;;;;6.70;5.03;;;4.60;70.80;;;;;;5112851;28;20058;-70
2024/01/11 09:31:11;;;;;;;6.93;5.10;;;4.60;70.80;;;;;;5112947;28;20016;-70
2024/01/11 09:33:37;;;;;;;6.93;5.60;;;4.60;70.80;;;;;;5094698;28;20020;-71
2024/01/11 09:36:03;;;;;;;6.78;4.75;;;4.60;70.80;;;;;;5094751;28;20087;-71
2024/01/11 09:38:29;;;;;;;6.03;4.72;;;4.60;70.80;;;;;;5094371;28;20544;-71
2024/01/11 09:41:15;;;;;;;6.53;5.03;;;4.60;70.80;;;;;;5094795;28;20126;-71
2024/01/11 09:43:42;;;;;;;7.63;5.53;;;4.60;70.70;;;;;;5094050;28;20443;-70
2024/01/11 09:46:09;;;;;;;7.18;4.90;;;4.60;70.70;;;;;;5094127;28;20033;-69
2024/01/11 09:48:44;;;;;;;7.55;5.30;;;4.60;70.70;;;;;;5094433;28;20038;-73
2024/01/11 09:51:13;;;;;;;6.65;5.25;;;4.60;70.70;;;;;;5094285;28;20016;-72
2024/01/11 09:53:39;;;;;;;7.32;5.07;;;4.60;70.70;;;;;;5112029;28;20046;-70
2024/01/11 09:56:09;;;;;;;6.60;5.30;;;4.60;70.70;;;;;;5094388;28;20019;-71
2024/01/11 09:58:48;;;;;;;7.68;5.53;;;4.60;70.70;;;;;;5112301;28;20485;-70
2024/01/11 10:01:14;;;;;;;7.15;5.32;;;4.60;70.70;;;;;;5112538;28;20020;-71
2024/01/11 10:03:43;;;;;;;6.72;4.93;;;4.60;70.80;;;;;;5112433;28;20022;-70
2024/01/11 10:06:10;;;;;;;7.00;5.70;;;4.60;70.70;;;;;;5090227;28;20035;-71
2024/01/11 10:08:36;;;;;;;7.20;5.70;;;4.60;70.70;;;;;;5094070;28;20028;-70
2024/01/11 10:11:05;;;;;;;7.13;5.50;;;4.60;70.60;;;;;;5094340;28;20024;-70
2024/01/11 10:13:35;;;;;;;7.32;5.40;;;4.70;70.70;;;;;;5094036;28;20023;-72
2024/01/11 10:16:15;;;;;;;7.00;5.53;;;4.70;70.70;;;;;;5094109;28;20384;-70
2024/01/11 10:18:41;;;;;;;7.28;5.70;;;4.70;70.60;;;;;;5094259;28;20080;-70
2024/01/11 10:21:09;;;;;;;7.25;5.72;;;4.70;70.60;;;;;;5096253;28;20028;-70
2024/01/11 10:23:36;;;;;;;6.72;5.00;;;4.80;70.50;;;;;;5095284;28;20080;-70
2024/01/11 10:26:04;;;;;;;7.78;5.50;;;4.80;70.50;;;;;;5125533;28;20027;-70
2024/01/11 10:28:30;;;;;;;8.10;5.72;;;4.80;70.50;;;;;;5105787;27;20023;-72
2024/01/11 10:30:57;;;;;;;8.55;5.80;;;4.80;70.40;;;;;;5117947;28;20034;-72
2024/01/11 10:33:22;;;;;;;6.88;5.28;;;4.80;70.50;;;;;;5118458;28;20028;-75
2024/01/11 10:35:51;;;;;;;8.10;5.60;;;4.80;70.40;;;;;;5131475;28;20068;-72
2024/01/11 10:38:17;;;;;;;8.13;6.05;;;4.80;70.40;;;;;;5111423;28;20036;-72
2024/01/11 10:40:44;;;;;;;8.70;6.53;;;4.80;70.40;;;;;;5095523;28;20024;-73
2024/01/11 10:43:15;;;;;;;7.63;5.32;;;4.80;70.40;;;;;;5115478;27;20023;-73
2024/01/11 10:45:42;;;;;;;8.63;6.03;;;4.80;70.40;;;;;;5109771;28;20027;-74
2024/01/11 10:48:13;;;;;;;7.63;5.80;;;4.80;70.50;;;;;;5112919;28;20096;-73
2024/01/11 10:50:43;;;;;;;9.25;6.20;;;4.80;70.50;;;;;;5108181;28;20031;-74
2024/01/11 10:53:32;;;;;;;7.20;5.85;;;4.80;70.40;;;;;;5116185;28;20073;-75
2024/01/11 10:55:59;;;;;;;8.38;5.80;;;4.80;70.40;;;;;;5122565;28;20458;-73
2024/01/11 10:58:26;;;;;;;9.15;5.97;;;4.80;70.90;;;;;;5095593;28;20415;-73
2024/01/11 11:00:57;;;;;;;7.50;5.63;;;4.80;70.30;;;;;;5113618;28;20080;-74
2024/01/11 11:03:26;;;;;;;8.73;6.32;;;4.80;70.30;;;;;;5096716;28;20063;-75
2024/01/11 11:05:55;;;;;;;8.52;5.63;;;4.80;70.30;;;;;;5081905;28;20078;-74
2024/01/11 11:08:23;;;;;;;6.63;5.45;;;4.80;70.30;;;;;;5079868;28;20028;-76
2024/01/11 11:10:54;;;;;;;8.38;6.50;;;4.80;70.30;;;;;;5099097;28;20113;-74
2024/01/11 11:13:21;;;;;;;8.20;6.30;;;4.90;70.40;;;;;;5117474;28;20028;-74
2024/01/11 11:15:48;;;;;;;6.88;5.60;;;4.90;70.30;;;;;;5098975;28;20030;-74
2024/01/11 11:18:14;;;;;;;7.95;6.05;;;4.90;70.30;;;;;;5098843;28;20035;-74
2024/01/11 11:20:43;;;;;;;7.75;5.82;;;5.00;70.30;;;;;;5096129;28;20023;-75
2024/01/11 11:23:11;;;;;;;8.30;5.90;;;5.00;70.20;;;;;;5118643;27;20019;-75
2024/01/11 11:25:38;;;;;;;7.85;5.63;;;5.00;70.20;;;;;;5106943;28;20019;-74
2024/01/11 11:28:04;;;;;;;8.38;6.22;;;5.00;70.20;;;;;;5115790;28;20496;-72
2024/01/11 11:30:31;;;;;;;8.25;6.10;;;5.10;70.20;;;;;;5116654;28;20380;-74
2024/01/11 11:32:56;;;;;;;9.68;6.30;;;5.10;70.10;;;;;;5099636;28;20366;-74
2024/01/11 11:35:25;;;;;;;7.90;6.25;;;5.20;70.10;;;;;;5109378;28;20136;-74
2024/01/11 11:37:56;;;;;;;9.00;6.65;;;5.10;70.00;;;;;;5116911;28;20077;-73
2024/01/11 11:40:31;;;;;;;8.68;6.10;;;5.20;70.00;;;;;;5116234;28;20028;-74
2024/01/11 11:42:57;;;;;;;9.02;6.55;;;5.20;69.90;;;;;;5106250;28;20385;-74
2024/01/11 11:45:26;;;;;;;7.82;5.93;;;5.20;70.50;;;;;;5116513;28;20077;-74
2024/01/11 11:47:52;;;;;;;8.18;5.90;;;5.20;69.80;;;;;;5104162;28;20473;-74
2024/01/11 11:50:22;;;;;;;8.57;6.30;;;5.20;69.80;;;;;;5114993;28;20076;-77
2024/01/11 11:52:57;;;;;;;9.00;6.55;;;5.30;69.80;;;;;;5106823;28;20118;-71
2024/01/11 11:55:26;;;;;;;8.77;6.13;;;5.20;69.70;;;;;;5096509;28;20023;-72
2024/01/11 11:57:55;;;;;;;9.32;6.75;;;5.30;69.80;;;;;;5114563;28;20027;-75
2024/01/11 12:00:21;;;;;;;8.15;6.18;;;5.30;69.80;;;;;;5096182;28;20496;-72
2024/01/11 12:02:48;;;;;;;8.73;6.43;;;5.30;69.80;;;;;;5096194;28;20043;-73
2024/01/11 12:05:14;;;;;;;9.00;6.63;;;5.20;69.70;;;;;;5096149;28;20040;-71
2024/01/11 12:07:40;;;;;;;8.32;6.32;;;5.20;69.70;;;;;;5114244;28;20373;-72
2024/01/11 12:10:06;;;;;;;9.68;6.25;;;5.20;69.70;;;;;;5095991;28;20027;-73
2024/01/11 12:12:34;;;;;;;8.82;6.75;;;5.20;69.80;;;;;;5092541;28;20024;-77
2024/01/11 12:15:00;;;;;;;9.25;7.10;;;5.20;69.80;;;;;;5097281;28;20576;-75
2024/01/11 12:17:26;;;;;;;8.68;6.40;;;5.20;69.80;;;;;;5098086;28;20081;-75
2024/01/11 12:19:52;;;;;;;8.18;5.90;;;5.10;69.70;;;;;;5098047;28;20032;-73
2024/01/11 12:22:19;;;;;;;9.18;6.80;;;5.10;69.80;;;;;;5097584;28;20036;-75
2024/01/11 12:24:46;;;;;;;8.43;6.43;;;5.10;69.80;;;;;;5116382;27;20390;-74
2024/01/11 12:27:12;;;;;;;8.15;6.05;;;5.00;69.80;;;;;;5111726;28;20461;-73
2024/01/11 12:29:42;;;;;;;9.80;6.40;;;5.00;69.80;;;;;;5114488;28;20038;-74
2024/01/11 12:32:11;;;;;;;8.02;6.30;;;5.00;69.80;;;;;;5102262;28;20039;-75
2024/01/11 12:34:38;;;;;;;7.32;5.93;;;5.00;69.90;;;;;;5115536;28;20366;-75
2024/01/11 12:37:05;;;;;;;8.80;6.45;;;5.00;69.80;;;;;;5107901;28;20024;-74
2024/01/11 12:39:31;;;;;;;8.13;6.13;;;5.00;69.80;;;;;;5121592;27;20027;-75
2024/01/11 12:41:57;;;;;;;9.20;6.97;;;4.90;69.80;;;;;;5135850;27;20101;-75
2024/01/11 12:44:26;;;;;;;8.75;6.55;;;4.90;69.80;;;;;;5117619;27;20031;-73
2024/01/11 12:46:52;;;;;;;10.30;6.82;;;4.90;70.40;;;;;;5117419;27;20079;-73
2024/01/11 12:49:18;;;;;;;11.15;7.15;;;4.90;69.80;;;;;;5134823;27;20034;-72
2024/01/11 12:51:44;;;;;;;8.60;6.05;;;4.90;69.90;;;;;;5127202;27;20098;-73
2024/01/11 12:54:19;;;;;;;8.73;6.47;;;4.90;69.80;;;;;;5114736;28;20031;-73
2024/01/11 12:56:45;;;;;;;10.15;7.15;;;4.90;69.90;;;;;;5117341;27;20023;-74
2024/01/11 12:59:12;;;;;;;9.30;6.45;;;4.80;69.90;;;;;;5117088;27;20393;-74